Time;durP1;ratioP1;P1;durP2;ratioP2;P2;SDS_P1;SDS_P2;PMS_P1;PMS_P2;Temp;Humidity;BMP_temperature;BMP_pressure;BME280_temperature;BME280_humidity;BME280_pressure;Samples;Min_cycle;Max_cycle;Signal;HPM_P1;HPM_P2
2022/10/18 00:01:45;;;;;;;63.90;23.85;;;12.50;99.90;;;;;;5084727;28;20032;-77
2022/10/18 00:04:11;;;;;;;64.70;22.95;;;12.40;99.90;;;;;;5076196;28;20451;-78
2022/10/18 00:06:36;;;;;;;63.33;22.80;;;12.40;99.90;;;;;;5059880;28;20051;-80
2022/10/18 00:09:02;;;;;;;79.95;26.13;;;12.30;99.90;;;;;;5075918;28;20044;-80
2022/10/18 00:11:28;;;;;;;70.25;26.80;;;12.40;99.90;;;;;;5057864;28;20048;-77
2022/10/18 00:13:55;;;;;;;89.05;29.50;;;12.30;99.90;;;;;;5057206;28;20485;-77
2022/10/18 00:16:21;;;;;;;70.82;27.52;;;12.40;99.90;;;;;;5071183;28;20053;-79
2022/10/18 00:18:47;;;;;;;61.03;24.73;;;12.30;99.90;;;;;;5064982;28;20047;-81
2022/10/18 00:21:20;;;;;;;155.93;33.60;;;12.30;99.90;;;;;;5055831;28;20036;-79
2022/10/18 00:23:48;;;;;;;135.93;31.40;;;12.40;99.90;;;;;;5066580;28;20471;-77
2022/10/18 00:26:25;;;;;;;113.30;30.48;;;12.40;99.90;;;;;;5056031;28;20078;-80
2022/10/18 00:28:57;;;;;;;74.03;25.88;;;12.30;99.90;;;;;;5087800;28;20048;-77
2022/10/18 00:31:37;;;;;;;97.97;28.33;;;12.30;99.90;;;;;;5060270;28;20127;-80
2022/10/18 00:34:09;;;;;;;75.82;27.83;;;12.30;99.90;;;;;;5054185;28;20089;-77
2022/10/18 00:36:35;;;;;;;89.70;28.23;;;12.30;99.90;;;;;;5075600;28;20141;-79
2022/10/18 00:39:03;;;;;;;84.97;28.63;;;12.50;99.90;;;;;;5058723;28;20055;-80
2022/10/18 00:41:31;;;;;;;103.32;27.20;;;12.40;99.90;;;;;;5092604;28;20051;-79
2022/10/18 00:44:23;;;;;;;137.20;30.90;;;12.40;99.90;;;;;;5073068;28;20044;-78
2022/10/18 00:46:49;;;;;;;152.20;30.23;;;12.40;99.90;;;;;;4998247;28;20046;-78
2022/10/18 00:49:26;;;;;;;112.03;29.08;;;12.40;99.90;;;;;;4998503;28;20468;-78
2022/10/18 00:52:26;;;;;;;172.13;32.58;;;12.30;99.90;;;;;;5013951;28;20078;-77
2022/10/18 00:54:54;;;;;;;110.80;29.58;;;12.30;99.90;;;;;;4921711;29;20442;-79
2022/10/18 00:57:20;;;;;;;139.85;30.95;;;12.30;99.90;;;;;;4953852;28;20168;-78
2022/10/18 00:59:46;;;;;;;78.53;26.35;;;12.30;99.90;;;;;;4971609;28;20166;-80
2022/10/18 01:02:14;;;;;;;188.32;31.15;;;12.20;99.90;;;;;;4944941;28;20133;-77
2022/10/18 01:04:40;;;;;;;208.13;30.42;;;12.30;99.90;;;;;;4956931;28;20047;-80
2022/10/18 01:07:06;;;;;;;120.95;28.27;;;12.10;99.90;;;;;;4925260;28;20055;-79
2022/10/18 01:09:54;;;;;;;134.88;27.27;;;12.10;99.90;;;;;;4957039;28;20434;-81
2022/10/18 01:12:38;;;;;;;188.05;29.58;;;12.10;99.90;;;;;;4939471;28;20062;-77
2022/10/18 01:15:16;;;;;;;132.73;28.40;;;12.00;99.90;;;;;;4956837;28;20058;-80
2022/10/18 01:18:05;;;;;;;190.13;32.80;;;12.10;99.90;;;;;;4983430;28;20060;-77
2022/10/18 01:21:07;;;;;;;342.58;39.88;;;12.10;99.90;;;;;;5014168;28;20385;-78
2022/10/18 01:24:04;;;;;;;124.77;25.20;;;12.10;99.90;;;;;;5012249;28;20049;-79
2022/10/18 01:26:47;;;;;;;148.77;28.52;;;11.90;99.90;;;;;;5013394;28;20053;-81
2022/10/18 01:29:42;;;;;;;142.80;28.20;;;11.90;99.90;;;;;;4993415;28;20141;-80
2022/10/18 01:32:15;;;;;;;122.88;26.40;;;11.90;99.90;;;;;;5059816;28;20051;-77
2022/10/18 01:34:44;;;;;;;128.65;26.77;;;11.90;99.90;;;;;;5074555;28;20047;-79
2022/10/18 01:37:15;;;;;;;160.13;28.33;;;11.90;99.90;;;;;;5057987;28;20047;-79
2022/10/18 01:39:45;;;;;;;171.63;27.17;;;11.90;99.90;;;;;;5070826;28;20136;-77
2022/10/18 01:42:18;;;;;;;210.95;27.10;;;11.90;99.90;;;;;;5062309;28;20032;-79
2022/10/18 01:44:47;;;;;;;164.02;25.20;;;11.90;99.90;;;;;;5055694;28;20063;-79
2022/10/18 01:47:14;;;;;;;197.20;26.48;;;11.90;99.90;;;;;;5050033;28;20575;-78
2022/10/18 01:49:39;;;;;;;198.60;27.92;;;11.90;99.90;;;;;;5063791;28;20562;-78
2022/10/18 01:52:05;;;;;;;128.23;26.33;;;12.10;99.90;;;;;;5073603;28;20084;-81
2022/10/18 01:54:39;;;;;;;184.90;26.20;;;12.00;99.90;;;;;;5043848;28;20082;-80
2022/10/18 01:57:11;;;;;;;282.23;35.00;;;12.00;99.90;;;;;;5049132;28;20088;-79
2022/10/18 01:59:45;;;;;;;266.70;32.83;;;12.20;99.90;;;;;;5073923;28;20036;-80
2022/10/18 02:02:20;;;;;;;206.43;28.63;;;12.20;99.90;;;;;;5051051;28;20032;-78
2022/10/18 02:05:33;;;;;;;191.85;27.70;;;12.20;99.90;;;;;;5054092;28;20063;-77
2022/10/18 02:08:26;;;;;;;164.88;28.13;;;12.20;99.90;;;;;;5010270;28;20045;-80
2022/10/18 02:11:01;;;;;;;141.27;25.25;;;12.20;99.90;;;;;;4961539;28;20234;-77
2022/10/18 02:13:34;;;;;;;365.40;33.85;;;12.30;99.90;;;;;;4990255;28;20584;-79
2022/10/18 02:16:06;;;;;;;370.60;33.38;;;12.20;99.90;;;;;;4977031;28;20053;-80
2022/10/18 02:18:48;;;;;;;340.08;33.85;;;12.20;99.90;;;;;;4994262;28;20119;-77
2022/10/18 02:21:18;;;;;;;284.50;28.23;;;12.20;99.90;;;;;;4994285;28;20073;-79
2022/10/18 02:23:45;;;;;;;313.50;32.58;;;12.30;99.90;;;;;;4976441;28;20093;-77
2022/10/18 02:26:12;;;;;;;284.60;36.03;;;12.30;99.90;;;;;;4994602;28;20057;-80
2022/10/18 02:28:38;;;;;;;282.85;31.42;;;12.30;99.90;;;;;;4976591;28;20058;-77
2022/10/18 02:31:18;;;;;;;186.60;28.52;;;12.30;99.90;;;;;;4992719;28;20548;-81
2022/10/18 02:33:52;;;;;;;374.85;37.80;;;12.30;99.90;;;;;;4993584;28;20050;-79
2022/10/18 02:36:46;;;;;;;344.97;35.77;;;12.40;99.90;;;;;;4977831;28;20100;-76
2022/10/18 02:39:36;;;;;;;195.73;27.43;;;12.40;99.90;;;;;;4978011;28;20127;-79
2022/10/18 02:42:06;;;;;;;352.42;37.33;;;12.40;99.90;;;;;;4964966;28;20370;-78
2022/10/18 02:44:34;;;;;;;271.65;34.30;;;12.40;99.90;;;;;;5011647;28;20133;-77
2022/10/18 02:47:00;;;;;;;227.52;28.40;;;12.40;99.90;;;;;;4984324;28;20140;-78
2022/10/18 02:49:26;;;;;;;273.27;30.25;;;12.40;99.90;;;;;;4977699;28;20096;-78
2022/10/18 02:51:51;;;;;;;323.83;37.63;;;12.50;99.90;;;;;;5008557;28;20042;-79
2022/10/18 02:54:17;;;;;;;245.48;34.03;;;12.50;99.90;;;;;;4992393;28;20140;-80
2022/10/18 02:56:43;;;;;;;280.25;34.30;;;12.50;99.90;;;;;;5002211;28;21704;-80
2022/10/18 02:59:10;;;;;;;197.80;29.33;;;12.50;99.90;;;;;;4988801;28;20094;-79
2022/10/18 03:01:36;;;;;;;204.77;32.90;;;12.40;99.90;;;;;;4965521;28;20129;-80
2022/10/18 03:04:04;;;;;;;264.35;33.53;;;12.50;99.90;;;;;;5009876;28;20125;-76
2022/10/18 03:06:30;;;;;;;238.27;31.60;;;12.50;99.90;;;;;;4977767;28;20242;-79
2022/10/18 03:08:56;;;;;;;390.10;37.80;;;12.50;99.90;;;;;;4996924;28;20053;-79
2022/10/18 03:11:22;;;;;;;423.25;40.50;;;12.50;99.90;;;;;;4995744;28;20042;-80
2022/10/18 03:13:49;;;;;;;402.55;39.97;;;12.50;99.90;;;;;;5010235;28;20054;-78
2022/10/18 03:16:15;;;;;;;357.95;39.25;;;12.50;99.90;;;;;;4961699;28;20126;-78
2022/10/18 03:18:41;;;;;;;410.50;41.70;;;12.50;99.90;;;;;;4971443;28;20512;-80
2022/10/18 03:21:07;;;;;;;273.05;31.92;;;12.50;99.90;;;;;;5037493;28;20066;-80
2022/10/18 03:23:33;;;;;;;156.88;29.90;;;12.50;99.90;;;;;;5039739;28;20037;-78
2022/10/18 03:25:59;;;;;;;224.75;32.95;;;12.60;99.90;;;;;;5054063;28;20118;-78
2022/10/18 03:28:24;;;;;;;199.25;31.08;;;12.40;99.90;;;;;;5054465;28;20099;-80
2022/10/18 03:30:50;;;;;;;175.98;31.52;;;12.50;99.90;;;;;;5052365;28;20045;-80
2022/10/18 03:33:16;;;;;;;190.93;32.35;;;12.50;99.90;;;;;;5039872;28;20099;-81
2022/10/18 03:35:44;;;;;;;199.77;33.22;;;12.50;99.90;;;;;;5057554;28;20380;-79
2022/10/18 03:38:10;;;;;;;199.75;32.85;;;12.40;99.90;;;;;;5052759;28;20099;-80
2022/10/18 03:40:36;;;;;;;119.88;27.40;;;12.50;99.90;;;;;;5037326;28;20218;-79
2022/10/18 03:43:03;;;;;;;150.85;26.75;;;12.50;99.90;;;;;;5037211;28;20056;-78
2022/10/18 03:45:28;;;;;;;134.82;27.15;;;12.40;99.90;;;;;;5054618;28;20052;-80
2022/10/18 03:47:54;;;;;;;200.45;30.05;;;12.40;99.90;;;;;;5073632;28;20083;-77
2022/10/18 03:50:19;;;;;;;162.57;27.33;;;12.30;99.90;;;;;;5060252;28;20051;-78
2022/10/18 03:52:45;;;;;;;134.20;26.65;;;12.30;99.90;;;;;;5074235;28;20082;-80
2022/10/18 03:55:11;;;;;;;182.52;32.50;;;12.40;99.90;;;;;;5076955;28;20470;-81
2022/10/18 03:57:36;;;;;;;127.65;26.73;;;12.40;99.90;;;;;;5056526;28;20049;-81
2022/10/18 04:00:03;;;;;;;107.95;25.27;;;12.30;99.90;;;;;;5048313;28;20028;-79
2022/10/18 04:02:28;;;;;;;120.03;26.88;;;12.30;99.90;;;;;;5058392;28;20075;-79
2022/10/18 04:04:54;;;;;;;112.80;29.20;;;12.30;99.90;;;;;;5059612;28;20047;-78
2022/10/18 04:07:20;;;;;;;178.75;27.23;;;12.30;99.90;;;;;;5112618;28;20474;-77
2022/10/18 04:09:45;;;;;;;296.38;31.42;;;12.20;99.90;;;;;;5081124;28;20437;-80
2022/10/18 04:12:11;;;;;;;193.40;28.85;;;12.30;99.90;;;;;;5063860;28;20040;-77
2022/10/18 04:14:36;;;;;;;182.77;29.50;;;12.20;99.90;;;;;;5078155;28;20040;-77
2022/10/18 04:17:03;;;;;;;214.50;26.88;;;12.20;99.90;;;;;;5077327;28;20406;-79
2022/10/18 04:19:29;;;;;;;244.57;30.55;;;12.20;99.90;;;;;;5057804;28;20151;-79
2022/10/18 04:21:55;;;;;;;204.73;29.15;;;12.20;99.90;;;;;;5057794;28;20104;-77
2022/10/18 04:24:20;;;;;;;300.05;31.67;;;12.10;99.90;;;;;;5070893;28;20076;-78
2022/10/18 04:26:46;;;;;;;278.45;31.58;;;12.20;99.90;;;;;;5042242;28;20042;-79
2022/10/18 04:29:12;;;;;;;345.77;33.25;;;12.00;99.90;;;;;;5074707;28;20907;-78
2022/10/18 04:31:37;;;;;;;267.55;28.85;;;12.20;99.90;;;;;;5050798;28;20084;-80
2022/10/18 04:34:04;;;;;;;194.32;28.65;;;12.10;99.90;;;;;;5055774;28;20044;-80
2022/10/18 04:36:30;;;;;;;328.75;35.55;;;12.10;99.90;;;;;;5034912;28;20044;-79
2022/10/18 04:38:55;;;;;;;206.88;31.27;;;12.10;99.90;;;;;;5049375;28;20032;-80
2022/10/18 04:41:21;;;;;;;121.13;26.63;;;12.10;99.90;;;;;;5063126;28;20036;-79
2022/10/18 04:43:47;;;;;;;222.45;26.85;;;12.10;99.90;;;;;;5074732;28;20394;-78
2022/10/18 04:46:13;;;;;;;295.73;32.22;;;12.00;99.90;;;;;;5044303;28;20044;-77
2022/10/18 04:48:40;;;;;;;206.88;28.88;;;12.00;99.90;;;;;;5079843;28;20052;-78
2022/10/18 04:51:05;;;;;;;309.05;25.30;;;12.10;99.90;;;;;;5059077;28;20048;-81
2022/10/18 04:53:32;;;;;;;405.90;30.05;;;12.00;99.90;;;;;;5069157;28;20032;-80
2022/10/18 04:55:57;;;;;;;359.73;25.55;;;11.90;99.90;;;;;;5075503;28;20399;-77
2022/10/18 04:58:23;;;;;;;418.67;30.75;;;11.90;99.90;;;;;;5075685;28;20044;-81
2022/10/18 05:00:49;;;;;;;233.85;23.52;;;11.80;99.90;;;;;;5074057;28;20124;-80
2022/10/18 05:03:15;;;;;;;384.20;29.23;;;11.90;99.90;;;;;;5074886;28;20039;-79
2022/10/18 05:05:42;;;;;;;431.88;30.13;;;11.80;99.90;;;;;;5075311;28;20039;-78
2022/10/18 05:08:07;;;;;;;429.92;32.10;;;11.80;99.90;;;;;;5058459;28;20395;-77
2022/10/18 05:10:33;;;;;;;454.50;27.30;;;11.80;99.90;;;;;;5074829;28;20046;-79
2022/10/18 05:12:59;;;;;;;445.90;27.92;;;11.70;99.90;;;;;;5071965;28;20481;-77
2022/10/18 05:15:24;;;;;;;272.85;22.85;;;11.70;99.90;;;;;;5057978;28;20360;-79
2022/10/18 05:17:50;;;;;;;319.80;25.83;;;11.80;99.90;;;;;;5069973;28;20476;-81
2022/10/18 05:20:15;;;;;;;490.02;29.48;;;11.80;99.90;;;;;;5052502;28;20055;-77
2022/10/18 05:22:41;;;;;;;463.70;26.08;;;11.70;99.90;;;;;;5051799;28;20051;-77
2022/10/18 05:25:08;;;;;;;456.77;26.77;;;11.70;99.90;;;;;;5058282;28;20040;-77
2022/10/18 05:27:34;;;;;;;371.02;26.75;;;11.60;99.90;;;;;;5073329;28;20349;-81
2022/10/18 05:30:00;;;;;;;343.17;24.05;;;11.60;99.90;;;;;;5069305;28;20051;-78
2022/10/18 05:32:25;;;;;;;384.10;26.23;;;11.60;99.90;;;;;;5044046;28;20496;-80
2022/10/18 05:34:51;;;;;;;328.10;22.65;;;11.50;99.90;;;;;;5063033;28;20040;-78
2022/10/18 05:37:17;;;;;;;390.05;21.40;;;11.60;99.90;;;;;;5075171;28;20028;-77
2022/10/18 05:39:43;;;;;;;337.92;21.27;;;11.40;99.90;;;;;;5075719;28;20044;-77
2022/10/18 05:42:09;;;;;;;453.30;25.08;;;11.40;99.90;;;;;;5062520;28;20461;-79
2022/10/18 05:44:34;;;;;;;483.20;23.08;;;11.50;99.90;;;;;;5077464;28;20058;-78
2022/10/18 05:47:00;;;;;;;425.45;23.25;;;11.50;99.90;;;;;;5055989;28;20118;-79
2022/10/18 05:49:26;;;;;;;390.58;23.67;;;11.40;99.90;;;;;;5074378;28;20063;-78
2022/10/18 05:51:51;;;;;;;358.67;20.67;;;11.30;99.90;;;;;;5057542;28;20048;-77
2022/10/18 05:54:17;;;;;;;208.35;19.92;;;11.40;99.90;;;;;;5057312;28;20462;-79
2022/10/18 05:56:43;;;;;;;224.57;21.88;;;11.30;99.90;;;;;;5067303;28;20126;-78
2022/10/18 05:59:10;;;;;;;328.40;21.20;;;11.20;99.90;;;;;;5052876;28;20051;-78
2022/10/18 06:01:40;;;;;;;229.68;20.15;;;11.20;99.90;;;;;;5064232;28;20040;-80
2022/10/18 06:04:08;;;;;;;206.00;17.55;;;11.00;99.90;;;;;;5073950;28;20043;-77
2022/10/18 06:06:35;;;;;;;141.05;15.10;;;11.10;99.90;;;;;;5073642;28;20044;-78
2022/10/18 06:09:02;;;;;;;163.63;15.13;;;11.00;99.90;;;;;;5068924;28;20064;-79
2022/10/18 06:11:29;;;;;;;170.93;16.45;;;11.00;99.90;;;;;;5038776;28;20052;-76
2022/10/18 06:13:56;;;;;;;218.32;16.08;;;11.00;99.90;;;;;;5052980;28;20066;-78
2022/10/18 06:16:23;;;;;;;146.57;14.70;;;11.00;99.90;;;;;;5049840;28;20463;-79
2022/10/18 06:18:51;;;;;;;217.75;17.13;;;11.00;99.90;;;;;;5074985;28;20068;-78
2022/10/18 06:21:18;;;;;;;279.98;18.75;;;10.90;99.90;;;;;;5072646;28;20035;-78
2022/10/18 06:23:50;;;;;;;215.38;16.05;;;10.90;99.90;;;;;;5056777;28;20040;-80
2022/10/18 06:26:16;;;;;;;79.68;14.77;;;10.90;99.90;;;;;;5055479;28;20028;-80
2022/10/18 06:28:42;;;;;;;119.85;17.42;;;10.80;99.90;;;;;;5069365;28;20521;-78
2022/10/18 06:31:09;;;;;;;259.08;17.40;;;10.80;99.90;;;;;;5077214;28;20101;-78
2022/10/18 06:33:36;;;;;;;277.88;17.67;;;10.70;99.90;;;;;;5076628;28;20046;-79
2022/10/18 06:36:16;;;;;;;218.93;14.80;;;10.70;99.90;;;;;;5057075;28;20055;-80
2022/10/18 06:38:43;;;;;;;231.73;14.18;;;10.70;99.90;;;;;;5047412;28;20044;-78
2022/10/18 06:41:09;;;;;;;266.58;14.95;;;10.70;99.90;;;;;;5071165;28;20390;-78
2022/10/18 06:43:35;;;;;;;260.15;16.33;;;10.60;99.90;;;;;;5055100;28;20066;-79
2022/10/18 06:46:05;;;;;;;271.52;15.40;;;10.50;99.90;;;;;;5056446;28;20048;-80
2022/10/18 06:48:31;;;;;;;293.25;14.38;;;10.70;99.90;;;;;;5069625;28;20052;-80
2022/10/18 06:50:59;;;;;;;368.65;14.77;;;10.70;99.90;;;;;;5055876;28;20044;-77
2022/10/18 06:53:26;;;;;;;206.00;11.38;;;10.50;99.90;;;;;;5072841;28;20114;-79
2022/10/18 06:55:57;;;;;;;274.77;15.43;;;10.60;99.90;;;;;;5056722;28;20101;-78
2022/10/18 06:58:23;;;;;;;354.92;14.98;;;10.50;99.90;;;;;;5043150;28;20080;-79
2022/10/18 07:00:49;;;;;;;414.38;14.40;;;10.60;99.90;;;;;;5053299;28;20115;-80
2022/10/18 07:03:14;;;;;;;325.25;12.73;;;10.50;99.90;;;;;;5070986;28;20117;-79
2022/10/18 07:05:40;;;;;;;329.35;12.75;;;10.60;99.90;;;;;;5054016;28;20043;-80
2022/10/18 07:08:27;;;;;;;175.02;10.40;;;10.60;99.90;;;;;;5058104;28;20070;-78
2022/10/18 07:10:53;;;;;;;129.07;10.13;;;10.60;99.90;;;;;;5042122;28;20081;-77
2022/10/18 07:13:20;;;;;;;146.77;9.07;;;10.60;99.90;;;;;;5054401;28;20416;-77
2022/10/18 07:15:45;;;;;;;95.55;8.00;;;10.50;99.90;;;;;;5053071;28;20048;-80
2022/10/18 07:18:12;;;;;;;104.35;8.70;;;10.60;99.90;;;;;;5052738;28;20037;-77
2022/10/18 07:20:39;;;;;;;133.07;9.02;;;10.50;99.90;;;;;;5041415;28;20040;-79
2022/10/18 07:23:07;;;;;;;90.47;9.88;;;10.50;99.90;;;;;;5069991;28;20036;-78
2022/10/18 07:25:33;;;;;;;112.95;10.20;;;10.50;99.90;;;;;;5036886;28;20029;-80
2022/10/18 07:27:59;;;;;;;140.68;9.43;;;10.60;99.90;;;;;;5063156;28;20032;-81
2022/10/18 07:30:25;;;;;;;109.32;9.35;;;10.60;99.90;;;;;;5036990;28;20036;-76
2022/10/18 07:32:51;;;;;;;100.15;10.88;;;10.50;99.90;;;;;;5065940;28;20039;-77
2022/10/18 07:35:17;;;;;;;132.27;10.48;;;10.70;99.90;;;;;;5072803;28;20075;-78
2022/10/18 07:37:43;;;;;;;52.60;10.27;;;10.60;99.90;;;;;;5072673;28;20040;-80
2022/10/18 07:40:10;;;;;;;48.60;9.48;;;10.70;99.90;;;;;;5046064;28;20111;-79
2022/10/18 07:42:37;;;;;;;52.05;8.80;;;10.70;99.90;;;;;;5052549;28;20042;-77
2022/10/18 07:45:03;;;;;;;27.75;8.52;;;10.70;99.90;;;;;;5055096;28;20060;-78
2022/10/18 07:47:29;;;;;;;19.85;7.57;;;10.80;99.90;;;;;;5072856;28;20044;-79
2022/10/18 07:49:54;;;;;;;31.65;8.48;;;10.70;99.90;;;;;;5052608;28;20032;-81
2022/10/18 07:52:21;;;;;;;29.02;8.25;;;10.70;99.90;;;;;;5067472;28;20063;-80
2022/10/18 07:54:47;;;;;;;26.48;7.97;;;10.70;99.90;;;;;;5090474;28;20070;-79
2022/10/18 07:57:12;;;;;;;21.20;9.23;;;10.80;99.90;;;;;;5059604;28;20059;-78
2022/10/18 07:59:38;;;;;;;27.15;8.95;;;10.90;99.90;;;;;;5073945;28;20055;-78
2022/10/18 08:02:04;;;;;;;30.45;10.25;;;11.00;99.90;;;;;;5094882;28;20080;-79
2022/10/18 08:04:30;;;;;;;15.82;8.80;;;11.00;99.90;;;;;;5074732;28;20040;-80
2022/10/18 08:06:57;;;;;;;19.65;9.52;;;11.10;99.90;;;;;;5059485;28;20043;-79
2022/10/18 08:09:23;;;;;;;17.30;9.98;;;11.00;99.90;;;;;;5067539;28;20040;-77
2022/10/18 08:11:49;;;;;;;19.27;9.50;;;11.10;99.90;;;;;;5059694;28;20055;-79
2022/10/18 08:14:14;;;;;;;21.27;9.75;;;11.20;99.90;;;;;;5057985;28;20162;-79
2022/10/18 08:16:40;;;;;;;19.15;9.55;;;11.30;99.90;;;;;;5073098;28;20102;-78
2022/10/18 08:19:06;;;;;;;22.23;8.93;;;11.40;99.90;;;;;;5073590;28;20040;-79
2022/10/18 08:21:33;;;;;;;19.08;8.98;;;11.40;99.90;;;;;;5057919;28;20470;-79
2022/10/18 08:23:58;;;;;;;16.85;8.40;;;11.40;99.90;;;;;;5059239;28;20044;-77
2022/10/18 08:26:24;;;;;;;18.98;8.95;;;11.40;99.90;;;;;;5076613;28;20044;-79
2022/10/18 08:28:50;;;;;;;18.80;8.30;;;11.60;99.90;;;;;;5073528;28;20073;-77
2022/10/18 08:31:17;;;;;;;20.10;8.68;;;11.60;99.90;;;;;;5055373;28;20075;-77
2022/10/18 08:33:43;;;;;;;19.58;7.88;;;11.60;99.90;;;;;;5056706;28;20040;-80
2022/10/18 08:36:27;;;;;;;14.68;7.82;;;11.60;99.90;;;;;;5051102;28;20043;-80
2022/10/18 08:38:54;;;;;;;18.20;7.47;;;11.70;99.90;;;;;;5056180;28;20040;-79
2022/10/18 08:41:30;;;;;;;21.85;7.25;;;11.80;99.90;;;;;;5058043;28;20063;-79
2022/10/18 08:44:16;;;;;;;18.92;6.68;;;12.00;99.90;;;;;;5074583;28;20036;-78
2022/10/18 08:46:45;;;;;;;19.08;6.50;;;12.10;99.90;;;;;;5052198;28;20056;-79
2022/10/18 08:49:25;;;;;;;20.23;6.60;;;12.00;99.90;;;;;;5055392;28;20044;-80
2022/10/18 08:51:51;;;;;;;18.65;6.28;;;12.10;99.90;;;;;;5022482;28;20075;-76
2022/10/18 08:54:32;;;;;;;18.63;5.50;;;12.00;99.90;;;;;;5042594;28;20069;-80
2022/10/18 08:57:00;;;;;;;24.25;5.88;;;12.20;99.90;;;;;;5047386;28;20458;-80
2022/10/18 08:59:37;;;;;;;16.45;5.65;;;12.30;99.90;;;;;;5064863;28;20048;-79
2022/10/18 09:02:11;;;;;;;18.05;5.80;;;12.30;99.90;;;;;;5048482;28;20090;-79
2022/10/18 09:04:45;;;;;;;17.67;5.28;;;12.40;99.90;;;;;;5040685;28;20040;-80
2022/10/18 09:07:32;;;;;;;13.40;4.75;;;12.50;99.90;;;;;;5051490;28;20045;-77
2022/10/18 09:10:19;;;;;;;23.90;5.00;;;12.60;99.90;;;;;;5054438;28;20488;-77
2022/10/18 09:13:05;;;;;;;19.73;4.63;;;12.70;99.90;;;;;;5063840;28;20044;-79
2022/10/18 09:15:33;;;;;;;20.33;4.10;;;12.80;99.90;;;;;;5037778;28;20051;-80
2022/10/18 09:18:26;;;;;;;19.63;3.80;;;12.90;99.90;;;;;;5037993;28;20051;-80
2022/10/18 09:21:21;;;;;;;28.17;4.65;;;13.10;99.90;;;;;;5038130;28;20032;-80
2022/10/18 09:23:48;;;;;;;20.38;4.07;;;13.10;99.90;;;;;;4968765;28;20247;-80
2022/10/18 09:26:24;;;;;;;18.73;3.75;;;13.10;99.90;;;;;;4954674;28;20039;-77
2022/10/18 09:29:23;;;;;;;22.15;3.85;;;13.10;99.90;;;;;;4929646;29;20139;-79
2022/10/18 09:32:03;;;;;;;21.02;3.83;;;13.10;99.90;;;;;;4947053;28;20178;-79
2022/10/18 09:34:35;;;;;;;18.63;3.28;;;13.40;99.90;;;;;;4975717;28;20150;-81
2022/10/18 09:37:01;;;;;;;21.42;3.47;;;13.40;99.90;;;;;;4975723;28;20038;-78
2022/10/18 09:39:34;;;;;;;23.65;3.45;;;13.50;99.90;;;;;;4961225;28;20066;-80
2022/10/18 09:42:27;;;;;;;21.00;3.42;;;13.50;99.90;;;;;;4948408;28;20054;-78
2022/10/18 09:45:24;;;;;;;18.15;3.05;;;13.70;99.90;;;;;;4958816;28;20077;-77
2022/10/18 09:48:18;;;;;;;29.65;3.20;;;13.80;99.90;;;;;;4976190;28;20081;-81
2022/10/18 09:51:02;;;;;;;27.35;4.18;;;13.70;99.90;;;;;;4917015;29;20056;-77
2022/10/18 09:53:37;;;;;;;16.63;2.97;;;13.80;99.90;;;;;;4916352;29;20060;-79
2022/10/18 09:56:35;;;;;;;18.35;3.03;;;13.80;99.90;;;;;;4918166;29;20507;-80
2022/10/18 09:59:01;;;;;;;22.50;2.85;;;13.90;99.90;;;;;;4859620;29;20578;-77
2022/10/18 10:01:30;;;;;;;24.15;3.45;;;14.00;99.90;;;;;;4901093;29;20083;-79
2022/10/18 10:03:57;;;;;;;18.42;3.00;;;14.10;99.90;;;;;;4925197;29;20063;-78
2022/10/18 10:06:28;;;;;;;24.05;2.90;;;14.20;99.90;;;;;;4898019;29;20081;-80
2022/10/18 10:08:58;;;;;;;19.52;2.60;;;14.20;99.90;;;;;;4902772;29;20464;-79
2022/10/18 10:11:31;;;;;;;14.02;2.20;;;14.30;99.90;;;;;;4882352;29;20044;-79
2022/10/18 10:14:24;;;;;;;21.27;2.20;;;14.30;99.90;;;;;;4896168;29;20120;-79
2022/10/18 10:17:02;;;;;;;13.05;2.08;;;14.50;99.90;;;;;;4866699;29;20060;-81
2022/10/18 10:19:32;;;;;;;21.90;2.83;;;14.50;99.90;;;;;;4912618;29;20055;-79
2022/10/18 10:22:05;;;;;;;18.17;2.38;;;14.60;99.90;;;;;;4895284;29;20056;-79
2022/10/18 10:24:43;;;;;;;19.33;2.78;;;14.50;99.90;;;;;;4881819;29;20571;-77
2022/10/18 10:27:15;;;;;;;16.90;2.33;;;14.70;99.90;;;;;;4914754;28;20046;-80
2022/10/18 10:29:46;;;;;;;17.42;2.40;;;14.80;99.90;;;;;;4973212;28;20497;-81
2022/10/18 10:32:17;;;;;;;14.68;2.63;;;15.10;99.90;;;;;;4988272;28;20057;-80
2022/10/18 10:34:43;;;;;;;16.92;2.30;;;15.00;99.90;;;;;;4957448;28;20039;-81
2022/10/18 10:37:28;;;;;;;17.08;2.22;;;14.90;99.90;;;;;;5038449;28;20032;-77
2022/10/18 10:40:09;;;;;;;16.02;2.40;;;15.10;99.90;;;;;;5053711;28;20059;-78
2022/10/18 10:42:47;;;;;;;17.92;2.40;;;15.20;99.90;;;;;;5055662;28;20046;-79
2022/10/18 10:45:13;;;;;;;18.75;2.58;;;15.30;99.90;;;;;;5039687;28;20052;-80
2022/10/18 10:47:39;;;;;;;20.55;2.50;;;15.20;99.90;;;;;;5072538;28;20067;-81
2022/10/18 10:50:12;;;;;;;15.77;2.70;;;15.50;99.90;;;;;;5062169;28;20097;-79
2022/10/18 10:52:40;;;;;;;16.58;2.75;;;15.60;99.90;;;;;;5072672;28;20135;-78
2022/10/18 10:55:17;;;;;;;12.95;2.05;;;15.60;99.90;;;;;;5072901;28;20131;-80
2022/10/18 10:57:46;;;;;;;20.30;2.88;;;15.30;99.90;;;;;;5046719;28;20132;-77
2022/10/18 11:00:35;;;;;;;16.17;2.40;;;15.20;99.90;;;;;;5072362;28;20084;-79
2022/10/18 11:03:19;;;;;;;20.95;2.63;;;15.30;99.90;;;;;;5074374;28;20040;-78
2022/10/18 11:05:47;;;;;;;18.00;2.40;;;15.20;99.90;;;;;;5043406;28;20044;-75
2022/10/18 11:08:21;;;;;;;20.77;2.40;;;15.30;99.90;;;;;;5066076;28;20071;-77
2022/10/18 11:11:26;;;;;;;17.52;2.55;;;15.40;99.90;;;;;;5036818;28;20047;-78
2022/10/18 11:14:22;;;;;;;20.95;2.33;;;15.40;99.90;;;;;;5003624;28;20064;-79
2022/10/18 11:17:11;;;;;;;23.17;2.88;;;15.40;99.90;;;;;;4992599;28;20133;-79
2022/10/18 11:20:00;;;;;;;17.27;2.45;;;15.20;99.90;;;;;;4992543;28;20050;-79
2022/10/18 11:26:08;;;;;;;15.35;2.33;;;15.20;99.90;;;;;;4992627;28;20053;-78
2022/10/18 11:28:52;;;;;;;15.32;2.00;;;15.60;99.90;;;;;;4998135;28;20052;-79
2022/10/18 11:31:26;;;;;;;15.35;2.28;;;15.60;99.90;;;;;;4999964;28;20129;-78
2022/10/18 11:34:21;;;;;;;16.33;2.53;;;15.40;99.90;;;;;;4997731;28;20555;-78
2022/10/18 11:36:57;;;;;;;13.17;2.17;;;15.30;99.90;;;;;;4995061;28;20392;-79
2022/10/18 11:39:41;;;;;;;19.83;2.83;;;15.10;99.90;;;;;;4996411;28;20770;-79
2022/10/18 11:42:34;;;;;;;21.30;2.38;;;15.10;99.90;;;;;;4994640;28;20049;-79
2022/10/18 11:45:19;;;;;;;13.77;2.60;;;15.10;99.90;;;;;;4989916;28;20051;-78
2022/10/18 11:48:11;;;;;;;16.08;2.38;;;15.20;99.90;;;;;;5020592;28;20076;-79
2022/10/18 11:50:45;;;;;;;22.00;2.85;;;15.30;99.90;;;;;;5033290;28;20060;-78
2022/10/18 11:53:49;;;;;;;14.85;2.08;;;15.30;99.90;;;;;;5059228;28;20047;-80
2022/10/18 11:56:32;;;;;;;17.15;2.70;;;15.30;99.90;;;;;;5059780;28;20040;-80
2022/10/18 11:59:06;;;;;;;12.18;1.95;;;15.20;99.90;;;;;;5081553;28;20143;-80
2022/10/18 12:01:38;;;;;;;;;;;15.30;99.90;;;;;;5070937;28;20143;-80
2022/10/18 12:04:19;;;;;;;20.50;2.30;;;15.30;99.90;;;;;;5074818;28;19916;-80
2022/10/18 12:06:49;;;;;;;16.23;3.28;;;15.60;99.90;;;;;;5059867;28;20052;-81
2022/10/18 12:09:33;;;;;;;15.27;2.55;;;15.60;99.90;;;;;;5090769;28;20375;-77
2022/10/18 12:12:07;;;;;;;13.38;2.65;;;15.70;99.90;;;;;;5056546;28;20063;-77
2022/10/18 12:14:45;;;;;;;15.40;2.50;;;15.40;99.90;;;;;;5056062;28;20047;-78
2022/10/18 12:17:39;;;;;;;16.70;2.58;;;15.20;99.90;;;;;;5075936;28;20067;-80
2022/10/18 12:20:13;;;;;;;18.73;2.33;;;15.20;99.90;;;;;;4959543;28;20197;-80
2022/10/18 12:22:52;;;;;;;13.70;1.73;;;15.40;99.90;;;;;;4941902;28;20047;-79
2022/10/18 12:25:18;;;;;;;16.35;2.55;;;15.40;99.90;;;;;;4987841;28;20057;-79
2022/10/18 12:28:13;;;;;;;14.85;2.67;;;15.40;99.90;;;;;;4975974;28;20370;-80
2022/10/18 12:30:44;;;;;;;17.30;2.22;;;15.60;99.90;;;;;;4936353;29;20199;-78
2022/10/18 12:33:17;;;;;;;15.20;2.17;;;15.70;99.90;;;;;;4904971;29;20113;-78
2022/10/18 12:36:17;;;;;;;14.35;2.00;;;15.80;99.90;;;;;;4898947;29;20056;-80
2022/10/18 12:38:46;;;;;;;19.73;2.60;;;15.80;99.90;;;;;;4909579;29;20242;-79
2022/10/18 12:41:38;;;;;;;11.90;2.13;;;15.90;99.90;;;;;;4917997;29;20134;-79
2022/10/18 12:44:34;;;;;;;23.55;3.30;;;16.00;99.90;;;;;;4914410;29;20055;-80
2022/10/18 12:47:03;;;;;;;13.25;2.30;;;16.10;99.90;;;;;;4902465;29;20480;-80
2022/10/18 12:49:37;;;;;;;12.73;2.20;;;16.10;99.90;;;;;;4919779;29;20044;-78
2022/10/18 12:52:07;;;;;;;16.83;2.85;;;16.20;99.90;;;;;;4921900;29;20082;-79
2022/10/18 12:54:35;;;;;;;12.90;2.33;;;16.40;99.90;;;;;;4937731;29;20177;-80